This is the latest recevied weather packets stored in our database for station/object TULLARI. If no packets are shown the sender has not sent any weather packets the latest 10 day(s).
| Time | Temp. | Humidity | Pressure | Rain* | Wind** | Luminosity | Snow |
|---|---|---|---|---|---|---|---|
| 1777598824 | 5.56° C | 91% | 1022.5 hPa | - | - | - | - |
| 1777597623 | 5.56° C | 92% | 1022.5 hPa | - | - | - | - |
| 1777596423 | 5.56° C | 91% | 1022.5 hPa | - | - | - | - |
| 1777595224 | 5.56° C | 90% | 1022.6 hPa | - | - | - | - |
| 1777594023 | 5.56° C | 90% | 1022.6 hPa | - | - | - | - |
| 1777592823 | 6.11° C | 90% | 1022.7 hPa | - | - | - | - |
| 1777591624 | 5.56° C | 91% | 1022.7 hPa | - | - | - | - |
| 1777590422 | 6.11° C | 91% | 1022.7 hPa | - | - | - | - |
| 1777589223 | 6.11° C | 91% | 1022.8 hPa | - | - | - | - |
| 1777588023 | 6.11° C | 89% | 1022.7 hPa | - | - | - | - |
| 1777586822 | 6.67° C | 87% | 1022.5 hPa | - | - | - | - |
| 1777585623 | 7.22° C | 85% | 1022.3 hPa | - | - | - | - |
| 1777584423 | 7.22° C | 85% | 1022.2 hPa | - | - | - | - |
| 1777583222 | 7.78° C | 84% | 1022 hPa | - | - | - | - |
| 1777582023 | 7.22° C | 84% | 1022.1 hPa | - | - | - | - |
| 1777580822 | 7.78° C | 83% | 1022 hPa | - | - | - | - |
| 1777579622 | 7.78° C | 83% | 1022.1 hPa | - | - | - | - |
| 1777578422 | 7.78° C | 83% | 1022.2 hPa | - | - | - | - |
| 1777577222 | 7.78° C | 82% | 1022.1 hPa | - | - | - | - |
| 1777576022 | 7.78° C | 81% | 1022 hPa | - | - | - | - |
| 1777574822 | 8.33° C | 78% | 1021.9 hPa | - | - | - | - |
| 1777573622 | 8.89° C | 76% | 1021.8 hPa | - | - | - | - |
| 1777572421 | 8.89° C | 76% | 1021.8 hPa | - | - | - | - |
| 1777571222 | 9.44° C | 75% | 1021.6 hPa | - | - | - | - |
| 1777570022 | 8.89° C | 77% | 1021.5 hPa | - | - | - | - |
* Rain since midnight (hover to see other rain measurements)
** Current wind speed in m/s (hover to see current wind gust speed)